sensor_id;sensor_type;location;lat;lon;timestamp;P1;durP1;ratioP1;P2;durP2;ratioP2
18752;SDS011;9505;50.882;5.350;2023-05-24T00:00:43;36.55;;;4.68;;
18752;SDS011;9505;50.882;5.350;2023-05-24T00:03:08;42.97;;;5.20;;
18752;SDS011;9505;50.882;5.350;2023-05-24T00:05:34;47.13;;;5.18;;
18752;SDS011;9505;50.882;5.350;2023-05-24T00:08:02;33.05;;;5.03;;
18752;SDS011;9505;50.882;5.350;2023-05-24T00:10:28;47.97;;;5.95;;
18752;SDS011;9505;50.882;5.350;2023-05-24T00:12:53;36.67;;;5.47;;
18752;SDS011;9505;50.882;5.350;2023-05-24T00:15:19;39.00;;;5.30;;
18752;SDS011;9505;50.882;5.350;2023-05-24T00:17:44;33.38;;;5.15;;
18752;SDS011;9505;50.882;5.350;2023-05-24T00:20:10;36.45;;;4.85;;
18752;SDS011;9505;50.882;5.350;2023-05-24T00:22:37;44.92;;;5.60;;
18752;SDS011;9505;50.882;5.350;2023-05-24T00:25:03;48.03;;;5.00;;
18752;SDS011;9505;50.882;5.350;2023-05-24T00:27:29;47.08;;;5.32;;
18752;SDS011;9505;50.882;5.350;2023-05-24T00:29:55;43.55;;;5.80;;
18752;SDS011;9505;50.882;5.350;2023-05-24T00:32:21;49.80;;;5.53;;
18752;SDS011;9505;50.882;5.350;2023-05-24T00:34:47;42.92;;;5.50;;
18752;SDS011;9505;50.882;5.350;2023-05-24T00:37:12;48.95;;;5.55;;
18752;SDS011;9505;50.882;5.350;2023-05-24T00:39:38;44.30;;;5.78;;
18752;SDS011;9505;50.882;5.350;2023-05-24T00:42:05;45.58;;;5.68;;
18752;SDS011;9505;50.882;5.350;2023-05-24T00:44:31;37.42;;;5.28;;
18752;SDS011;9505;50.882;5.350;2023-05-24T00:46:57;37.50;;;5.18;;
18752;SDS011;9505;50.882;5.350;2023-05-24T00:49:23;40.17;;;4.85;;
18752;SDS011;9505;50.882;5.350;2023-05-24T00:51:49;38.85;;;5.72;;
18752;SDS011;9505;50.882;5.350;2023-05-24T00:54:16;30.95;;;4.70;;
18752;SDS011;9505;50.882;5.350;2023-05-24T00:56:42;43.63;;;6.07;;
18752;SDS011;9505;50.882;5.350;2023-05-24T00:59:08;35.17;;;5.35;;
18752;SDS011;9505;50.882;5.350;2023-05-24T01:01:33;45.35;;;6.57;;
18752;SDS011;9505;50.882;5.350;2023-05-24T01:04:01;37.65;;;5.15;;
18752;SDS011;9505;50.882;5.350;2023-05-24T01:06:27;36.38;;;6.10;;
18752;SDS011;9505;50.882;5.350;2023-05-24T01:08:57;41.80;;;5.75;;
18752;SDS011;9505;50.882;5.350;2023-05-24T01:20:24;43.83;;;5.75;;
18752;SDS011;9505;50.882;5.350;2023-05-24T01:27:57;40.65;;;4.95;;
18752;SDS011;9505;50.882;5.350;2023-05-24T01:30:24;36.67;;;5.85;;
18752;SDS011;9505;50.882;5.350;2023-05-24T01:32:51;39.72;;;6.30;;
18752;SDS011;9505;50.882;5.350;2023-05-24T01:35:17;43.35;;;6.05;;
18752;SDS011;9505;50.882;5.350;2023-05-24T01:37:43;40.60;;;5.93;;
18752;SDS011;9505;50.882;5.350;2023-05-24T01:40:09;32.08;;;4.78;;
18752;SDS011;9505;50.882;5.350;2023-05-24T01:42:39;37.45;;;5.05;;
18752;SDS011;9505;50.882;5.350;2023-05-24T01:45:24;41.30;;;5.70;;
18752;SDS011;9505;50.882;5.350;2023-05-24T01:48:15;41.97;;;5.15;;
18752;SDS011;9505;50.882;5.350;2023-05-24T01:50:51;32.63;;;4.70;;
18752;SDS011;9505;50.882;5.350;2023-05-24T01:53:22;43.38;;;6.00;;
18752;SDS011;9505;50.882;5.350;2023-05-24T01:55:53;31.33;;;5.70;;
18752;SDS011;9505;50.882;5.350;2023-05-24T01:58:21;37.17;;;5.15;;
18752;SDS011;9505;50.882;5.350;2023-05-24T02:00:49;37.70;;;5.38;;
18752;SDS011;9505;50.882;5.350;2023-05-24T02:03:16;33.63;;;5.05;;
18752;SDS011;9505;50.882;5.350;2023-05-24T02:05:42;41.33;;;5.45;;
18752;SDS011;9505;50.882;5.350;2023-05-24T02:08:09;32.38;;;5.00;;
18752;SDS011;9505;50.882;5.350;2023-05-24T02:10:35;37.95;;;5.68;;
18752;SDS011;9505;50.882;5.350;2023-05-24T02:13:03;39.72;;;5.38;;
18752;SDS011;9505;50.882;5.350;2023-05-24T02:15:29;39.25;;;5.20;;
18752;SDS011;9505;50.882;5.350;2023-05-24T02:17:55;44.72;;;5.75;;
18752;SDS011;9505;50.882;5.350;2023-05-24T02:20:21;43.40;;;5.80;;
18752;SDS011;9505;50.882;5.350;2023-05-24T02:22:48;40.33;;;5.88;;
18752;SDS011;9505;50.882;5.350;2023-05-24T02:25:13;35.55;;;5.25;;
18752;SDS011;9505;50.882;5.350;2023-05-24T02:27:39;40.53;;;5.75;;
18752;SDS011;9505;50.882;5.350;2023-05-24T02:30:06;42.25;;;5.78;;
18752;SDS011;9505;50.882;5.350;2023-05-24T02:32:32;36.15;;;5.40;;
18752;SDS011;9505;50.882;5.350;2023-05-24T02:34:58;33.00;;;5.30;;
18752;SDS011;9505;50.882;5.350;2023-05-24T02:37:26;38.85;;;5.88;;
18752;SDS011;9505;50.882;5.350;2023-05-24T02:39:52;37.80;;;5.82;;
18752;SDS011;9505;50.882;5.350;2023-05-24T02:42:17;39.20;;;5.82;;
18752;SDS011;9505;50.882;5.350;2023-05-24T02:44:43;42.65;;;6.35;;
18752;SDS011;9505;50.882;5.350;2023-05-24T02:47:13;39.25;;;5.85;;
18752;SDS011;9505;50.882;5.350;2023-05-24T02:49:39;46.08;;;6.05;;
18752;SDS011;9505;50.882;5.350;2023-05-24T02:52:04;38.70;;;5.90;;
18752;SDS011;9505;50.882;5.350;2023-05-24T02:54:30;41.20;;;6.25;;
18752;SDS011;9505;50.882;5.350;2023-05-24T02:56:56;44.75;;;7.13;;
18752;SDS011;9505;50.882;5.350;2023-05-24T02:59:22;38.00;;;5.57;;
18752;SDS011;9505;50.882;5.350;2023-05-24T03:01:48;40.10;;;6.07;;
18752;SDS011;9505;50.882;5.350;2023-05-24T03:04:14;39.58;;;5.47;;
18752;SDS011;9505;50.882;5.350;2023-05-24T03:06:40;38.78;;;6.25;;
18752;SDS011;9505;50.882;5.350;2023-05-24T03:09:05;30.90;;;5.43;;
18752;SDS011;9505;50.882;5.350;2023-05-24T03:11:31;40.17;;;6.63;;
18752;SDS011;9505;50.882;5.350;2023-05-24T03:13:57;37.72;;;5.78;;
18752;SDS011;9505;50.882;5.350;2023-05-24T03:16:22;34.42;;;5.50;;
18752;SDS011;9505;50.882;5.350;2023-05-24T03:18:49;43.28;;;5.22;;
18752;SDS011;9505;50.882;5.350;2023-05-24T03:21:15;39.53;;;6.05;;
18752;SDS011;9505;50.882;5.350;2023-05-24T03:23:42;34.53;;;5.95;;
18752;SDS011;9505;50.882;5.350;2023-05-24T03:26:07;33.63;;;5.85;;
18752;SDS011;9505;50.882;5.350;2023-05-24T03:28:33;45.30;;;5.85;;
18752;SDS011;9505;50.882;5.350;2023-05-24T03:30:59;38.25;;;6.07;;
18752;SDS011;9505;50.882;5.350;2023-05-24T03:33:25;39.67;;;6.05;;
18752;SDS011;9505;50.882;5.350;2023-05-24T03:35:50;42.42;;;5.70;;
18752;SDS011;9505;50.882;5.350;2023-05-24T03:38:16;32.78;;;5.82;;
18752;SDS011;9505;50.882;5.350;2023-05-24T03:40:42;37.40;;;5.93;;
18752;SDS011;9505;50.882;5.350;2023-05-24T03:43:07;41.28;;;6.28;;
18752;SDS011;9505;50.882;5.350;2023-05-24T03:45:33;36.25;;;5.88;;
18752;SDS011;9505;50.882;5.350;2023-05-24T03:47:58;24.35;;;5.05;;
18752;SDS011;9505;50.882;5.350;2023-05-24T03:50:24;47.50;;;5.53;;
18752;SDS011;9505;50.882;5.350;2023-05-24T03:52:50;33.47;;;5.72;;
18752;SDS011;9505;50.882;5.350;2023-05-24T03:55:16;38.97;;;6.45;;
18752;SDS011;9505;50.882;5.350;2023-05-24T03:57:42;36.47;;;5.97;;
18752;SDS011;9505;50.882;5.350;2023-05-24T04:00:07;32.53;;;6.00;;
18752;SDS011;9505;50.882;5.350;2023-05-24T04:02:36;32.60;;;6.28;;
18752;SDS011;9505;50.882;5.350;2023-05-24T04:05:05;35.28;;;5.50;;
18752;SDS011;9505;50.882;5.350;2023-05-24T04:07:34;35.75;;;5.80;;
18752;SDS011;9505;50.882;5.350;2023-05-24T04:10:01;41.65;;;6.97;;
18752;SDS011;9505;50.882;5.350;2023-05-24T04:12:28;35.55;;;5.90;;
18752;SDS011;9505;50.882;5.350;2023-05-24T04:14:55;35.78;;;6.70;;
18752;SDS011;9505;50.882;5.350;2023-05-24T04:17:20;33.03;;;5.65;;
18752;SDS011;9505;50.882;5.350;2023-05-24T04:19:48;40.08;;;6.45;;
18752;SDS011;9505;50.882;5.350;2023-05-24T04:22:17;32.92;;;6.05;;
18752;SDS011;9505;50.882;5.350;2023-05-24T04:24:43;46.45;;;6.43;;
18752;SDS011;9505;50.882;5.350;2023-05-24T04:27:09;32.08;;;5.72;;
18752;SDS011;9505;50.882;5.350;2023-05-24T04:29:35;35.63;;;6.22;;
18752;SDS011;9505;50.882;5.350;2023-05-24T04:32:03;37.42;;;6.28;;
18752;SDS011;9505;50.882;5.350;2023-05-24T04:34:28;35.53;;;6.25;;
18752;SDS011;9505;50.882;5.350;2023-05-24T04:36:57;36.92;;;6.32;;
18752;SDS011;9505;50.882;5.350;2023-05-24T04:39:26;31.45;;;6.22;;
18752;SDS011;9505;50.882;5.350;2023-05-24T04:41:53;39.45;;;6.32;;
18752;SDS011;9505;50.882;5.350;2023-05-24T04:44:21;51.88;;;7.40;;
18752;SDS011;9505;50.882;5.350;2023-05-24T04:46:48;36.22;;;5.90;;
18752;SDS011;9505;50.882;5.350;2023-05-24T04:49:13;32.88;;;5.22;;
18752;SDS011;9505;50.882;5.350;2023-05-24T04:51:39;36.35;;;5.72;;
18752;SDS011;9505;50.882;5.350;2023-05-24T04:54:05;51.30;;;8.27;;
18752;SDS011;9505;50.882;5.350;2023-05-24T04:56:34;37.60;;;6.82;;
18752;SDS011;9505;50.882;5.350;2023-05-24T04:59:00;35.92;;;7.25;;
18752;SDS011;9505;50.882;5.350;2023-05-24T05:01:26;49.80;;;7.95;;
18752;SDS011;9505;50.882;5.350;2023-05-24T05:03:52;37.50;;;6.88;;
18752;SDS011;9505;50.882;5.350;2023-05-24T05:06:17;36.08;;;6.72;;
18752;SDS011;9505;50.882;5.350;2023-05-24T05:08:43;47.28;;;8.10;;
18752;SDS011;9505;50.882;5.350;2023-05-24T05:11:08;45.35;;;8.30;;
18752;SDS011;9505;50.882;5.350;2023-05-24T05:13:34;43.95;;;7.85;;
18752;SDS011;9505;50.882;5.350;2023-05-24T05:16:00;48.92;;;9.63;;
18752;SDS011;9505;50.882;5.350;2023-05-24T05:18:26;54.20;;;8.90;;
18752;SDS011;9505;50.882;5.350;2023-05-24T05:20:52;53.42;;;9.57;;
18752;SDS011;9505;50.882;5.350;2023-05-24T05:23:17;35.25;;;8.25;;
18752;SDS011;9505;50.882;5.350;2023-05-24T05:25:43;44.20;;;8.38;;
18752;SDS011;9505;50.882;5.350;2023-05-24T05:28:09;42.10;;;9.15;;
18752;SDS011;9505;50.882;5.350;2023-05-24T05:30:34;57.97;;;10.30;;
18752;SDS011;9505;50.882;5.350;2023-05-24T05:33:00;52.75;;;9.80;;
18752;SDS011;9505;50.882;5.350;2023-05-24T05:35:26;58.10;;;10.20;;
18752;SDS011;9505;50.882;5.350;2023-05-24T05:37:51;43.78;;;8.75;;
18752;SDS011;9505;50.882;5.350;2023-05-24T05:40:17;41.03;;;7.70;;
18752;SDS011;9505;50.882;5.350;2023-05-24T05:42:42;35.70;;;7.68;;
18752;SDS011;9505;50.882;5.350;2023-05-24T05:45:08;35.35;;;6.38;;
18752;SDS011;9505;50.882;5.350;2023-05-24T05:47:34;33.50;;;6.97;;
18752;SDS011;9505;50.882;5.350;2023-05-24T05:50:00;43.65;;;8.20;;
18752;SDS011;9505;50.882;5.350;2023-05-24T05:52:25;35.40;;;5.63;;
18752;SDS011;9505;50.882;5.350;2023-05-24T05:54:51;27.73;;;5.18;;
18752;SDS011;9505;50.882;5.350;2023-05-24T05:57:17;32.58;;;6.05;;
18752;SDS011;9505;50.882;5.350;2023-05-24T05:59:48;35.15;;;6.07;;
18752;SDS011;9505;50.882;5.350;2023-05-24T06:02:14;27.42;;;5.03;;
18752;SDS011;9505;50.882;5.350;2023-05-24T06:04:39;34.92;;;5.97;;
18752;SDS011;9505;50.882;5.350;2023-05-24T06:07:05;36.60;;;6.18;;
18752;SDS011;9505;50.882;5.350;2023-05-24T06:09:30;35.60;;;5.90;;
18752;SDS011;9505;50.882;5.350;2023-05-24T06:11:56;36.08;;;5.60;;
18752;SDS011;9505;50.882;5.350;2023-05-24T06:14:22;33.00;;;5.80;;
18752;SDS011;9505;50.882;5.350;2023-05-24T06:16:48;39.75;;;6.25;;
18752;SDS011;9505;50.882;5.350;2023-05-24T06:19:16;31.30;;;5.00;;
18752;SDS011;9505;50.882;5.350;2023-05-24T06:21:42;40.00;;;5.80;;
18752;SDS011;9505;50.882;5.350;2023-05-24T06:24:15;39.80;;;6.07;;
18752;SDS011;9505;50.882;5.350;2023-05-24T06:26:44;45.70;;;6.60;;
18752;SDS011;9505;50.882;5.350;2023-05-24T06:29:10;29.23;;;5.13;;
18752;SDS011;9505;50.882;5.350;2023-05-24T06:31:36;37.72;;;5.82;;
18752;SDS011;9505;50.882;5.350;2023-05-24T06:34:02;49.25;;;7.05;;
18752;SDS011;9505;50.882;5.350;2023-05-24T06:36:27;41.30;;;6.47;;
18752;SDS011;9505;50.882;5.350;2023-05-24T06:38:53;36.50;;;5.45;;
18752;SDS011;9505;50.882;5.350;2023-05-24T06:41:18;44.03;;;5.97;;
18752;SDS011;9505;50.882;5.350;2023-05-24T06:43:45;38.58;;;5.82;;
18752;SDS011;9505;50.882;5.350;2023-05-24T06:46:10;42.88;;;5.80;;
18752;SDS011;9505;50.882;5.350;2023-05-24T06:48:36;47.88;;;6.18;;
18752;SDS011;9505;50.882;5.350;2023-05-24T06:51:01;38.30;;;5.35;;
18752;SDS011;9505;50.882;5.350;2023-05-24T06:53:28;41.83;;;4.93;;
18752;SDS011;9505;50.882;5.350;2023-05-24T06:55:53;42.95;;;5.53;;
18752;SDS011;9505;50.882;5.350;2023-05-24T06:58:19;50.33;;;7.03;;
18752;SDS011;9505;50.882;5.350;2023-05-24T07:00:45;46.90;;;6.20;;
18752;SDS011;9505;50.882;5.350;2023-05-24T07:03:11;51.13;;;6.53;;
18752;SDS011;9505;50.882;5.350;2023-05-24T07:05:37;48.58;;;5.97;;
18752;SDS011;9505;50.882;5.350;2023-05-24T07:08:04;42.00;;;5.78;;
18752;SDS011;9505;50.882;5.350;2023-05-24T07:10:30;59.28;;;7.07;;
18752;SDS011;9505;50.882;5.350;2023-05-24T07:12:56;43.60;;;5.97;;
18752;SDS011;9505;50.882;5.350;2023-05-24T07:15:22;43.45;;;5.72;;
18752;SDS011;9505;50.882;5.350;2023-05-24T07:17:47;43.25;;;5.63;;
18752;SDS011;9505;50.882;5.350;2023-05-24T07:20:13;41.92;;;5.07;;
18752;SDS011;9505;50.882;5.350;2023-05-24T07:22:39;43.92;;;6.07;;
18752;SDS011;9505;50.882;5.350;2023-05-24T07:25:05;46.33;;;6.55;;
18752;SDS011;9505;50.882;5.350;2023-05-24T07:27:31;52.03;;;6.80;;
18752;SDS011;9505;50.882;5.350;2023-05-24T07:29:56;49.83;;;6.63;;
18752;SDS011;9505;50.882;5.350;2023-05-24T07:32:22;44.08;;;5.78;;
18752;SDS011;9505;50.882;5.350;2023-05-24T07:34:48;44.90;;;5.65;;
18752;SDS011;9505;50.882;5.350;2023-05-24T07:37:14;38.50;;;5.55;;
18752;SDS011;9505;50.882;5.350;2023-05-24T07:39:41;43.85;;;5.75;;
18752;SDS011;9505;50.882;5.350;2023-05-24T07:42:07;47.20;;;6.22;;
18752;SDS011;9505;50.882;5.350;2023-05-24T07:44:33;52.97;;;6.78;;
18752;SDS011;9505;50.882;5.350;2023-05-24T07:46:59;52.70;;;6.43;;
18752;SDS011;9505;50.882;5.350;2023-05-24T07:49:26;53.38;;;7.10;;
18752;SDS011;9505;50.882;5.350;2023-05-24T07:51:52;56.50;;;7.10;;
18752;SDS011;9505;50.882;5.350;2023-05-24T07:54:20;61.70;;;7.10;;
18752;SDS011;9505;50.882;5.350;2023-05-24T07:56:46;35.55;;;4.95;;
18752;SDS011;9505;50.882;5.350;2023-05-24T07:59:12;41.25;;;5.85;;
18752;SDS011;9505;50.882;5.350;2023-05-24T08:01:38;59.78;;;6.95;;
18752;SDS011;9505;50.882;5.350;2023-05-24T08:04:03;46.65;;;5.80;;
18752;SDS011;9505;50.882;5.350;2023-05-24T08:06:29;52.42;;;6.13;;
18752;SDS011;9505;50.882;5.350;2023-05-24T08:08:56;54.15;;;6.40;;
18752;SDS011;9505;50.882;5.350;2023-05-24T08:11:22;54.63;;;6.28;;
18752;SDS011;9505;50.882;5.350;2023-05-24T08:13:48;45.17;;;5.50;;
18752;SDS011;9505;50.882;5.350;2023-05-24T08:16:14;51.08;;;5.97;;
18752;SDS011;9505;50.882;5.350;2023-05-24T08:18:39;50.45;;;5.47;;
18752;SDS011;9505;50.882;5.350;2023-05-24T08:21:05;48.38;;;5.30;;
18752;SDS011;9505;50.882;5.350;2023-05-24T08:23:31;44.40;;;5.35;;
18752;SDS011;9505;50.882;5.350;2023-05-24T08:25:57;46.35;;;5.68;;
18752;SDS011;9505;50.882;5.350;2023-05-24T08:28:24;53.45;;;5.72;;
18752;SDS011;9505;50.882;5.350;2023-05-24T08:30:51;43.58;;;5.43;;
18752;SDS011;9505;50.882;5.350;2023-05-24T08:33:16;54.90;;;6.40;;
18752;SDS011;9505;50.882;5.350;2023-05-24T08:35:42;49.78;;;5.53;;
18752;SDS011;9505;50.882;5.350;2023-05-24T08:38:08;50.85;;;5.90;;
18752;SDS011;9505;50.882;5.350;2023-05-24T08:40:33;46.40;;;5.53;;
18752;SDS011;9505;50.882;5.350;2023-05-24T08:43:00;41.72;;;5.28;;
18752;SDS011;9505;50.882;5.350;2023-05-24T08:45:28;54.55;;;6.43;;
18752;SDS011;9505;50.882;5.350;2023-05-24T08:47:55;49.55;;;5.65;;
18752;SDS011;9505;50.882;5.350;2023-05-24T08:50:22;50.72;;;5.88;;
18752;SDS011;9505;50.882;5.350;2023-05-24T08:52:48;48.25;;;5.55;;
18752;SDS011;9505;50.882;5.350;2023-05-24T08:55:15;54.20;;;6.25;;
18752;SDS011;9505;50.882;5.350;2023-05-24T08:57:41;49.63;;;6.03;;
18752;SDS011;9505;50.882;5.350;2023-05-24T09:00:10;45.05;;;5.88;;
18752;SDS011;9505;50.882;5.350;2023-05-24T09:02:39;50.83;;;6.05;;
18752;SDS011;9505;50.882;5.350;2023-05-24T09:05:08;52.17;;;6.63;;
18752;SDS011;9505;50.882;5.350;2023-05-24T09:07:35;48.17;;;5.85;;
18752;SDS011;9505;50.882;5.350;2023-05-24T09:10:05;50.10;;;5.57;;
18752;SDS011;9505;50.882;5.350;2023-05-24T09:12:32;45.08;;;5.13;;
18752;SDS011;9505;50.882;5.350;2023-05-24T09:15:00;48.25;;;5.60;;
18752;SDS011;9505;50.882;5.350;2023-05-24T09:17:27;63.30;;;6.47;;
18752;SDS011;9505;50.882;5.350;2023-05-24T09:19:56;62.30;;;7.30;;
18752;SDS011;9505;50.882;5.350;2023-05-24T09:22:23;59.97;;;6.75;;
18752;SDS011;9505;50.882;5.350;2023-05-24T09:24:51;44.53;;;5.63;;
18752;SDS011;9505;50.882;5.350;2023-05-24T09:27:21;55.67;;;6.75;;
18752;SDS011;9505;50.882;5.350;2023-05-24T09:29:47;50.45;;;6.32;;
18752;SDS011;9505;50.882;5.350;2023-05-24T09:32:14;56.97;;;6.75;;
18752;SDS011;9505;50.882;5.350;2023-05-24T09:34:43;46.17;;;5.85;;
18752;SDS011;9505;50.882;5.350;2023-05-24T09:37:13;57.13;;;6.72;;
18752;SDS011;9505;50.882;5.350;2023-05-24T09:39:40;58.63;;;7.03;;
18752;SDS011;9505;50.882;5.350;2023-05-24T09:42:19;50.60;;;6.32;;
18752;SDS011;9505;50.882;5.350;2023-05-24T09:45:06;44.10;;;5.88;;
18752;SDS011;9505;50.882;5.350;2023-05-24T09:47:35;43.90;;;5.38;;
18752;SDS011;9505;50.882;5.350;2023-05-24T09:50:02;48.35;;;5.80;;
18752;SDS011;9505;50.882;5.350;2023-05-24T09:52:28;58.17;;;6.63;;
18752;SDS011;9505;50.882;5.350;2023-05-24T09:54:54;51.45;;;7.03;;
18752;SDS011;9505;50.882;5.350;2023-05-24T09:57:20;48.90;;;6.18;;
18752;SDS011;9505;50.882;5.350;2023-05-24T09:59:49;39.83;;;5.55;;
18752;SDS011;9505;50.882;5.350;2023-05-24T10:02:16;38.47;;;5.55;;
18752;SDS011;9505;50.882;5.350;2023-05-24T10:04:45;41.88;;;5.63;;
18752;SDS011;9505;50.882;5.350;2023-05-24T10:07:11;43.70;;;5.72;;
18752;SDS011;9505;50.882;5.350;2023-05-24T10:09:37;48.63;;;7.30;;
18752;SDS011;9505;50.882;5.350;2023-05-24T10:12:04;51.95;;;6.10;;
18752;SDS011;9505;50.882;5.350;2023-05-24T10:14:32;53.95;;;7.03;;
18752;SDS011;9505;50.882;5.350;2023-05-24T10:17:02;48.95;;;6.43;;
18752;SDS011;9505;50.882;5.350;2023-05-24T10:19:29;62.83;;;6.90;;
18752;SDS011;9505;50.882;5.350;2023-05-24T10:21:59;50.13;;;6.03;;
18752;SDS011;9505;50.882;5.350;2023-05-24T10:24:31;57.05;;;6.88;;
18752;SDS011;9505;50.882;5.350;2023-05-24T10:27:00;53.25;;;6.40;;
18752;SDS011;9505;50.882;5.350;2023-05-24T10:32:02;41.45;;;5.72;;
18752;SDS011;9505;50.882;5.350;2023-05-24T10:34:29;52.10;;;6.07;;
18752;SDS011;9505;50.882;5.350;2023-05-24T10:36:55;49.08;;;5.90;;
18752;SDS011;9505;50.882;5.350;2023-05-24T10:39:23;45.97;;;5.35;;
18752;SDS011;9505;50.882;5.350;2023-05-24T10:41:49;49.35;;;5.70;;
18752;SDS011;9505;50.882;5.350;2023-05-24T10:44:17;25.52;;;3.75;;
18752;SDS011;9505;50.882;5.350;2023-05-24T10:49:34;35.72;;;4.82;;
18752;SDS011;9505;50.882;5.350;2023-05-24T10:52:02;46.42;;;6.07;;
18752;SDS011;9505;50.882;5.350;2023-05-24T10:54:32;48.60;;;6.13;;
18752;SDS011;9505;50.882;5.350;2023-05-24T10:57:00;48.88;;;6.22;;
18752;SDS011;9505;50.882;5.350;2023-05-24T10:59:33;47.90;;;5.53;;
18752;SDS011;9505;50.882;5.350;2023-05-24T11:02:07;61.00;;;7.05;;
18752;SDS011;9505;50.882;5.350;2023-05-24T11:04:38;43.10;;;5.38;;
18752;SDS011;9505;50.882;5.350;2023-05-24T11:07:07;46.85;;;6.30;;
18752;SDS011;9505;50.882;5.350;2023-05-24T11:09:34;50.50;;;6.35;;
18752;SDS011;9505;50.882;5.350;2023-05-24T11:12:11;62.10;;;7.55;;
18752;SDS011;9505;50.882;5.350;2023-05-24T11:14:51;51.83;;;6.97;;
18752;SDS011;9505;50.882;5.350;2023-05-24T11:17:21;45.28;;;5.70;;
18752;SDS011;9505;50.882;5.350;2023-05-24T11:19:51;47.20;;;6.20;;
18752;SDS011;9505;50.882;5.350;2023-05-24T11:22:21;40.30;;;5.30;;
18752;SDS011;9505;50.882;5.350;2023-05-24T11:24:50;42.80;;;5.78;;
18752;SDS011;9505;50.882;5.350;2023-05-24T11:27:17;39.95;;;5.38;;
18752;SDS011;9505;50.882;5.350;2023-05-24T11:29:43;54.17;;;6.65;;
18752;SDS011;9505;50.882;5.350;2023-05-24T11:32:13;39.10;;;5.57;;
18752;SDS011;9505;50.882;5.350;2023-05-24T11:34:40;51.67;;;6.60;;
18752;SDS011;9505;50.882;5.350;2023-05-24T11:37:09;48.80;;;5.90;;
18752;SDS011;9505;50.882;5.350;2023-05-24T11:39:35;40.10;;;5.40;;
18752;SDS011;9505;50.882;5.350;2023-05-24T11:42:05;54.90;;;7.18;;
18752;SDS011;9505;50.882;5.350;2023-05-24T11:44:32;40.85;;;5.60;;
18752;SDS011;9505;50.882;5.350;2023-05-24T11:46:59;37.10;;;5.50;;
18752;SDS011;9505;50.882;5.350;2023-05-24T11:49:26;48.03;;;6.47;;
18752;SDS011;9505;50.882;5.350;2023-05-24T11:51:55;54.90;;;8.98;;
18752;SDS011;9505;50.882;5.350;2023-05-24T11:54:22;45.60;;;6.65;;
18752;SDS011;9505;50.882;5.350;2023-05-24T11:56:48;44.75;;;6.45;;
18752;SDS011;9505;50.882;5.350;2023-05-24T12:01:49;36.00;;;5.18;;
18752;SDS011;9505;50.882;5.350;2023-05-24T12:04:21;79.45;;;8.93;;
18752;SDS011;9505;50.882;5.350;2023-05-24T12:06:47;45.90;;;6.32;;
18752;SDS011;9505;50.882;5.350;2023-05-24T12:09:13;46.20;;;6.40;;
18752;SDS011;9505;50.882;5.350;2023-05-24T12:11:40;84.10;;;9.52;;
18752;SDS011;9505;50.882;5.350;2023-05-24T12:14:15;111.25;;;12.00;;
18752;SDS011;9505;50.882;5.350;2023-05-24T12:16:53;72.22;;;8.90;;
18752;SDS011;9505;50.882;5.350;2023-05-24T12:19:20;73.18;;;8.98;;
18752;SDS011;9505;50.882;5.350;2023-05-24T12:21:46;103.07;;;11.43;;
18752;SDS011;9505;50.882;5.350;2023-05-24T12:24:13;50.40;;;8.00;;
18752;SDS011;9505;50.882;5.350;2023-05-24T12:26:41;43.72;;;6.38;;
18752;SDS011;9505;50.882;5.350;2023-05-24T12:29:09;67.93;;;8.02;;
18752;SDS011;9505;50.882;5.350;2023-05-24T12:31:36;81.82;;;9.60;;
18752;SDS011;9505;50.882;5.350;2023-05-24T12:34:03;84.60;;;9.63;;
18752;SDS011;9505;50.882;5.350;2023-05-24T12:36:30;51.88;;;6.70;;
18752;SDS011;9505;50.882;5.350;2023-05-24T12:38:57;42.60;;;5.95;;
18752;SDS011;9505;50.882;5.350;2023-05-24T12:41:23;67.32;;;7.78;;
18752;SDS011;9505;50.882;5.350;2023-05-24T12:43:49;91.13;;;10.43;;
18752;SDS011;9505;50.882;5.350;2023-05-24T12:46:16;62.97;;;7.85;;
18752;SDS011;9505;50.882;5.350;2023-05-24T12:48:41;47.85;;;6.28;;
18752;SDS011;9505;50.882;5.350;2023-05-24T12:51:07;54.90;;;6.95;;
18752;SDS011;9505;50.882;5.350;2023-05-24T12:53:33;77.72;;;9.30;;
18752;SDS011;9505;50.882;5.350;2023-05-24T12:55:58;68.72;;;8.32;;
18752;SDS011;9505;50.882;5.350;2023-05-24T12:58:25;48.38;;;6.72;;
18752;SDS011;9505;50.882;5.350;2023-05-24T13:00:51;59.63;;;7.80;;
18752;SDS011;9505;50.882;5.350;2023-05-24T13:03:16;87.15;;;9.85;;
18752;SDS011;9505;50.882;5.350;2023-05-24T13:05:42;81.38;;;9.65;;
18752;SDS011;9505;50.882;5.350;2023-05-24T13:08:08;57.88;;;6.97;;
18752;SDS011;9505;50.882;5.350;2023-05-24T13:10:34;71.40;;;8.63;;
18752;SDS011;9505;50.882;5.350;2023-05-24T13:12:59;97.57;;;10.85;;
18752;SDS011;9505;50.882;5.350;2023-05-24T13:15:25;75.45;;;9.32;;
18752;SDS011;9505;50.882;5.350;2023-05-24T13:17:51;46.15;;;6.10;;
18752;SDS011;9505;50.882;5.350;2023-05-24T13:20:18;63.08;;;7.32;;
18752;SDS011;9505;50.882;5.350;2023-05-24T13:22:46;87.75;;;9.70;;
18752;SDS011;9505;50.882;5.350;2023-05-24T13:25:12;94.13;;;10.57;;
18752;SDS011;9505;50.882;5.350;2023-05-24T13:27:37;63.67;;;8.23;;
18752;SDS011;9505;50.882;5.350;2023-05-24T13:30:03;54.58;;;7.07;;
18752;SDS011;9505;50.882;5.350;2023-05-24T13:32:30;73.60;;;10.23;;
18752;SDS011;9505;50.882;5.350;2023-05-24T13:34:56;104.50;;;19.58;;
18752;SDS011;9505;50.882;5.350;2023-05-24T13:37:23;74.18;;;11.40;;
18752;SDS011;9505;50.882;5.350;2023-05-24T13:39:48;41.97;;;6.47;;
18752;SDS011;9505;50.882;5.350;2023-05-24T13:42:14;61.08;;;8.95;;
18752;SDS011;9505;50.882;5.350;2023-05-24T13:44:41;93.72;;;10.88;;
18752;SDS011;9505;50.882;5.350;2023-05-24T13:47:06;90.03;;;13.15;;
18752;SDS011;9505;50.882;5.350;2023-05-24T13:49:32;50.05;;;6.88;;
18752;SDS011;9505;50.882;5.350;2023-05-24T13:51:58;56.33;;;7.32;;
18752;SDS011;9505;50.882;5.350;2023-05-24T13:54:24;72.85;;;8.80;;
18752;SDS011;9505;50.882;5.350;2023-05-24T13:56:50;89.95;;;9.73;;
18752;SDS011;9505;50.882;5.350;2023-05-24T13:59:16;41.95;;;6.30;;
18752;SDS011;9505;50.882;5.350;2023-05-24T14:01:42;48.60;;;6.40;;
18752;SDS011;9505;50.882;5.350;2023-05-24T14:04:09;107.07;;;11.35;;
18752;SDS011;9505;50.882;5.350;2023-05-24T14:06:35;102.78;;;11.30;;
18752;SDS011;9505;50.882;5.350;2023-05-24T14:09:02;68.13;;;7.70;;
18752;SDS011;9505;50.882;5.350;2023-05-24T14:11:29;52.10;;;6.30;;
18752;SDS011;9505;50.882;5.350;2023-05-24T14:13:55;53.05;;;6.43;;
18752;SDS011;9505;50.882;5.350;2023-05-24T14:16:21;89.78;;;9.93;;
18752;SDS011;9505;50.882;5.350;2023-05-24T14:18:47;86.82;;;10.25;;
18752;SDS011;9505;50.882;5.350;2023-05-24T14:21:16;67.35;;;8.13;;
18752;SDS011;9505;50.882;5.350;2023-05-24T14:23:42;50.30;;;5.97;;
18752;SDS011;9505;50.882;5.350;2023-05-24T14:26:08;62.92;;;7.03;;
18752;SDS011;9505;50.882;5.350;2023-05-24T14:28:33;75.43;;;8.50;;
18752;SDS011;9505;50.882;5.350;2023-05-24T14:30:59;67.00;;;7.75;;
18752;SDS011;9505;50.882;5.350;2023-05-24T14:33:25;32.00;;;5.10;;
18752;SDS011;9505;50.882;5.350;2023-05-24T14:35:50;59.63;;;7.90;;
18752;SDS011;9505;50.882;5.350;2023-05-24T14:38:16;68.40;;;8.73;;
18752;SDS011;9505;50.882;5.350;2023-05-24T14:40:42;75.45;;;8.55;;
18752;SDS011;9505;50.882;5.350;2023-05-24T14:43:11;40.15;;;5.95;;
18752;SDS011;9505;50.882;5.350;2023-05-24T14:45:37;47.40;;;6.18;;
18752;SDS011;9505;50.882;5.350;2023-05-24T14:48:05;77.40;;;8.93;;
18752;SDS011;9505;50.882;5.350;2023-05-24T14:50:31;76.97;;;9.38;;
18752;SDS011;9505;50.882;5.350;2023-05-24T14:52:56;56.47;;;7.18;;
18752;SDS011;9505;50.882;5.350;2023-05-24T14:55:23;37.03;;;5.65;;
18752;SDS011;9505;50.882;5.350;2023-05-24T14:57:49;60.05;;;7.95;;
18752;SDS011;9505;50.882;5.350;2023-05-24T15:00:15;84.35;;;10.23;;
18752;SDS011;9505;50.882;5.350;2023-05-24T15:02:41;76.03;;;9.32;;
18752;SDS011;9505;50.882;5.350;2023-05-24T15:05:07;41.75;;;5.60;;
18752;SDS011;9505;50.882;5.350;2023-05-24T15:07:33;43.22;;;6.20;;